createdAt,value
2022-11-10T00:01:15.227Z,10.59
2022-11-10T00:04:01.858Z,10.60
2022-11-10T00:06:49.779Z,10.64
2022-11-10T00:09:36.187Z,10.61
2022-11-10T00:12:23.522Z,10.65
2022-11-10T00:15:30.337Z,10.59
2022-11-10T00:18:16.800Z,10.60
2022-11-10T00:21:05.409Z,10.53
2022-11-10T00:23:53.382Z,10.49
2022-11-10T00:26:40.472Z,10.45
2022-11-10T00:29:26.709Z,10.43
2022-11-10T00:32:13.326Z,10.45
2022-11-10T00:34:59.880Z,10.47
2022-11-10T00:37:46.595Z,10.48
2022-11-10T00:40:34.642Z,10.42
2022-11-10T00:43:26.173Z,10.44
2022-11-10T00:46:13.242Z,10.38
2022-11-10T00:49:02.496Z,10.31
2022-11-10T00:51:50.603Z,10.32
2022-11-10T00:54:36.832Z,10.29
2022-11-10T00:57:24.473Z,10.30
2022-11-10T01:00:11.502Z,10.33
2022-11-10T01:02:59.811Z,10.36
2022-11-10T01:05:46.510Z,10.37
2022-11-10T01:08:32.981Z,10.40
2022-11-10T01:11:22.630Z,10.39
2022-11-10T01:14:10.417Z,10.35
2022-11-10T01:16:56.635Z,10.51
2022-11-10T01:19:43.197Z,10.53
2022-11-10T01:22:29.515Z,10.63
2022-11-10T01:25:16.105Z,10.66
2022-11-10T01:28:02.270Z,10.65
2022-11-10T01:30:57.309Z,10.59
2022-11-10T01:33:43.925Z,10.59
2022-11-10T01:36:30.421Z,10.62
2022-11-10T01:39:16.553Z,10.47
2022-11-10T01:42:02.975Z,10.49
2022-11-10T01:45:23.051Z,10.46
2022-11-10T01:48:14.619Z,10.36
2022-11-10T01:51:05.274Z,10.31
2022-11-10T01:53:58.439Z,10.36
2022-11-10T01:56:50.011Z,10.44
2022-11-10T01:59:41.188Z,10.38
2022-11-10T02:02:31.896Z,10.42
2022-11-10T02:05:20.596Z,10.49
2022-11-10T02:08:08.249Z,10.46
2022-11-10T02:10:54.991Z,10.37
2022-11-10T02:13:41.564Z,10.36
2022-11-10T02:16:28.274Z,10.49
2022-11-10T02:19:16.901Z,10.45
2022-11-10T02:22:04.815Z,10.45
2022-11-10T02:24:51.999Z,10.51
2022-11-10T02:27:38.296Z,10.40
2022-11-10T02:30:27.679Z,10.38
2022-11-10T02:33:17.849Z,10.30
2022-11-10T02:36:05.000Z,10.36
2022-11-10T02:38:52.787Z,10.34
2022-11-10T02:41:39.834Z,10.30
2022-11-10T02:44:32.609Z,10.30
2022-11-10T02:47:19.500Z,10.22
2022-11-10T02:50:06.544Z,10.18
2022-11-10T02:52:53.123Z,10.11
2022-11-10T02:55:40.892Z,9.97
2022-11-10T02:58:27.785Z,9.75
2022-11-10T03:01:14.435Z,9.57
2022-11-10T03:04:00.880Z,9.44
2022-11-10T03:06:47.661Z,9.42
2022-11-10T03:09:33.902Z,9.42
2022-11-10T03:12:21.904Z,9.32
2022-11-10T03:15:09.308Z,9.37
2022-11-10T03:17:56.730Z,9.29
2022-11-10T03:20:43.076Z,9.31
2022-11-10T03:23:29.666Z,9.19
2022-11-10T03:26:15.995Z,9.17
2022-11-10T03:29:03.739Z,9.30
2022-11-10T03:31:50.640Z,9.37
2022-11-10T03:34:36.934Z,9.23
2022-11-10T03:37:23.338Z,9.27
2022-11-10T03:40:11.112Z,9.29
2022-11-10T03:42:57.541Z,9.12
2022-11-10T03:45:45.796Z,9.09
2022-11-10T03:48:31.999Z,9.17
2022-11-10T03:51:18.450Z,9.28
2022-11-10T03:54:04.934Z,9.14
2022-11-10T03:56:51.506Z,8.99
2022-11-10T03:59:38.059Z,9.08
2022-11-10T04:02:25.676Z,9.08
2022-11-10T04:05:32.076Z,9.17
2022-11-10T04:08:39.014Z,9.32
2022-11-10T04:11:43.726Z,9.50
2022-11-10T04:14:55.837Z,9.47
2022-11-10T04:17:50.182Z,9.40
2022-11-10T04:20:36.443Z,9.42
2022-11-10T04:23:34.681Z,9.42
2022-11-10T04:26:30.059Z,9.40
2022-11-10T04:29:19.348Z,9.50
2022-11-10T04:32:06.198Z,9.50
2022-11-10T04:34:53.927Z,9.53
2022-11-10T04:37:40.728Z,9.61
2022-11-10T04:40:27.457Z,9.60
2022-11-10T04:43:14.090Z,9.42
2022-11-10T04:46:01.177Z,9.34
2022-11-10T04:48:47.367Z,9.45
2022-11-10T04:51:37.845Z,9.57
2022-11-10T04:54:24.555Z,9.69
2022-11-10T04:57:11.128Z,9.64
2022-11-10T04:59:57.641Z,9.61
2022-11-10T05:02:44.202Z,9.62
2022-11-10T05:05:31.130Z,9.63
2022-11-10T05:08:19.156Z,9.51
2022-11-10T05:11:12.399Z,9.48
2022-11-10T05:13:58.910Z,9.59
2022-11-10T05:16:45.338Z,9.55
2022-11-10T05:19:32.044Z,9.44
2022-11-10T05:22:18.522Z,9.48
2022-11-10T05:25:07.260Z,9.45
2022-11-10T05:27:53.354Z,9.40
2022-11-10T05:30:40.494Z,9.45
2022-11-10T05:33:27.405Z,9.43
2022-11-10T05:36:14.019Z,9.43
2022-11-10T05:39:00.641Z,9.51
2022-11-10T05:41:48.554Z,9.53
2022-11-10T05:44:34.751Z,9.56
2022-11-10T05:47:21.092Z,9.45
2022-11-10T05:50:09.245Z,9.44
2022-11-10T05:52:56.720Z,9.49
2022-11-10T05:55:43.097Z,9.95
2022-11-10T05:58:31.072Z,9.73
2022-11-10T06:01:18.026Z,9.74
2022-11-10T06:04:04.335Z,9.62
2022-11-10T06:06:50.993Z,9.61
2022-11-10T06:09:38.022Z,9.66
2022-11-10T06:12:25.015Z,9.68
2022-11-10T06:15:13.607Z,9.68
2022-11-10T06:18:00.257Z,9.67
2022-11-10T06:20:47.369Z,9.63
2022-11-10T06:23:33.925Z,9.64
2022-11-10T06:26:20.225Z,9.61
2022-11-10T06:29:06.795Z,9.57
2022-11-10T06:31:54.375Z,9.66
2022-11-10T06:34:41.160Z,9.65
2022-11-10T06:37:27.626Z,9.68
2022-11-10T06:40:14.947Z,9.62
2022-11-10T06:43:01.506Z,9.74
2022-11-10T06:45:48.087Z,9.71
2022-11-10T06:48:36.388Z,9.67
2022-11-10T06:51:23.164Z,9.74
2022-11-10T06:54:09.866Z,9.75
2022-11-10T06:56:56.310Z,9.76
2022-11-10T06:59:42.661Z,9.72
2022-11-10T07:02:29.222Z,9.71
2022-11-10T07:05:17.113Z,9.63
2022-11-10T07:08:04.289Z,9.54
2022-11-10T07:10:53.979Z,9.52
2022-11-10T07:13:40.614Z,9.39
2022-11-10T07:16:27.113Z,9.36
2022-11-10T07:19:13.800Z,9.37
2022-11-10T07:22:03.483Z,9.47
2022-11-10T07:24:57.837Z,9.46
2022-11-10T07:27:47.034Z,9.44
2022-11-10T07:30:36.840Z,9.64
2022-11-10T07:33:23.321Z,9.95
2022-11-10T07:36:10.057Z,10.15
2022-11-10T07:39:01.109Z,10.27
2022-11-10T07:41:52.116Z,10.48
2022-11-10T07:44:39.074Z,10.57
2022-11-10T07:47:26.197Z,10.61
2022-11-10T07:50:12.999Z,10.61
2022-11-10T07:53:07.037Z,10.66
2022-11-10T07:55:55.161Z,10.84
2022-11-10T07:58:41.709Z,10.67
2022-11-10T08:01:28.095Z,10.61
2022-11-10T08:04:14.314Z,10.61
2022-11-10T08:07:00.744Z,10.66
2022-11-10T08:09:47.082Z,11.53
2022-11-10T08:12:35.109Z,11.75
2022-11-10T08:15:21.437Z,11.63
2022-11-10T08:18:10.608Z,11.63
2022-11-10T08:20:57.528Z,11.69
2022-11-10T08:23:44.076Z,11.39
2022-11-10T08:26:30.635Z,11.20
2022-11-10T08:29:18.537Z,11.05
2022-11-10T08:32:05.506Z,11.12
2022-11-10T08:34:52.309Z,10.85
2022-11-10T08:37:38.753Z,10.82
2022-11-10T08:40:27.635Z,10.69
2022-11-10T08:43:15.261Z,10.86
2022-11-10T08:46:03.149Z,11.04
2022-11-10T08:48:49.585Z,10.97
2022-11-10T08:51:39.063Z,11.36
2022-11-10T08:54:25.758Z,11.62
2022-11-10T08:57:12.300Z,11.92
2022-11-10T08:59:58.853Z,11.63
2022-11-10T09:02:46.615Z,11.88
2022-11-10T09:05:33.067Z,12.00
2022-11-10T09:08:20.496Z,12.02
2022-11-10T09:11:07.309Z,11.59
2022-11-10T09:13:53.630Z,11.64
2022-11-10T09:16:40.032Z,11.84
2022-11-10T09:19:27.760Z,12.05
2022-11-10T09:22:13.862Z,12.00
2022-11-10T09:25:00.399Z,11.86
2022-11-10T09:27:47.388Z,12.49
2022-11-10T09:30:33.756Z,12.24
2022-11-10T09:33:20.759Z,12.58
2022-11-10T09:36:09.420Z,12.45
2022-11-10T09:38:56.052Z,12.48
2022-11-10T09:41:44.853Z,12.37
2022-11-10T09:44:36.986Z,13.16
2022-11-10T09:47:55.695Z,13.14
2022-11-10T09:50:43.110Z,13.41
2022-11-10T09:53:38.061Z,13.71
2022-11-10T09:56:31.377Z,13.44
2022-11-10T09:59:24.533Z,13.48
2022-11-10T10:02:22.983Z,13.15
2022-11-10T10:05:47.366Z,12.86
2022-11-10T10:08:45.590Z,13.17
2022-11-10T10:11:44.841Z,13.57
2022-11-10T10:14:56.455Z,13.29
2022-11-10T10:17:54.267Z,12.82
2022-11-10T10:20:50.218Z,12.62
2022-11-10T10:24:07.620Z,12.41
2022-11-10T10:26:53.683Z,12.76
2022-11-10T10:29:42.181Z,12.92
2022-11-10T10:32:29.956Z,12.67
2022-11-10T10:35:19.675Z,12.59
2022-11-10T10:38:12.251Z,13.16
2022-11-10T10:41:08.430Z,12.99
2022-11-10T10:43:58.258Z,12.97
2022-11-10T10:46:47.640Z,12.59
2022-11-10T10:49:34.667Z,12.36
2022-11-10T10:52:25.019Z,12.09
2022-11-10T10:55:14.274Z,12.30
2022-11-10T10:58:06.659Z,12.53
2022-11-10T11:00:55.997Z,12.71
2022-11-10T11:03:44.315Z,13.24
2022-11-10T11:06:31.683Z,13.80
2022-11-10T11:09:20.849Z,14.13
2022-11-10T11:12:09.686Z,14.59
2022-11-10T11:15:14.085Z,14.32
2022-11-10T11:18:02.470Z,14.70
2022-11-10T11:21:00.565Z,14.33
2022-11-10T11:24:02.275Z,14.34
2022-11-10T11:26:58.077Z,14.85
2022-11-10T11:30:04.223Z,14.70
2022-11-10T11:33:05.685Z,14.35
2022-11-10T11:35:59.312Z,14.11
2022-11-10T11:38:56.666Z,14.00
2022-11-10T11:41:48.418Z,13.41
2022-11-10T11:44:48.963Z,12.97
2022-11-10T11:47:50.924Z,12.74
2022-11-10T11:50:44.690Z,12.85
2022-11-10T11:53:43.918Z,13.36
2022-11-10T11:56:34.119Z,13.93
2022-11-10T11:59:35.837Z,13.84
2022-11-10T12:02:36.329Z,13.80
2022-11-10T12:05:47.911Z,13.88
2022-11-10T12:08:40.789Z,14.29
2022-11-10T12:11:39.884Z,13.99
2022-11-10T12:14:38.427Z,14.21
2022-11-10T12:17:34.509Z,14.06
2022-11-10T12:20:28.655Z,14.40
2022-11-10T12:23:27.342Z,14.16
2022-11-10T12:26:22.438Z,13.88
2022-11-10T12:29:19.026Z,13.72
2022-11-10T12:32:14.407Z,14.05
2022-11-10T12:35:08.234Z,14.11
2022-11-10T12:37:59.892Z,14.00
2022-11-10T12:40:50.942Z,14.19
2022-11-10T12:43:41.759Z,14.16
2022-11-10T12:46:28.067Z,14.10
2022-11-10T12:49:19.444Z,14.40
2022-11-10T12:52:15.016Z,14.39
2022-11-10T12:55:02.195Z,14.42
2022-11-10T12:57:50.614Z,14.41
2022-11-10T13:00:42.868Z,15.00
2022-11-10T13:03:32.641Z,14.89
2022-11-10T13:06:30.346Z,14.72
2022-11-10T13:09:28.001Z,14.30
2022-11-10T13:12:20.295Z,13.51
2022-11-10T13:15:40.510Z,13.45
2022-11-10T13:19:01.916Z,13.45
2022-11-10T13:22:36.866Z,13.82
2022-11-10T13:25:54.480Z,14.00
2022-11-10T13:29:02.647Z,14.42
2022-11-10T13:31:54.403Z,14.89
2022-11-10T13:34:43.091Z,15.07
2022-11-10T13:37:51.417Z,14.67
2022-11-10T13:40:40.902Z,14.39
2022-11-10T13:43:28.629Z,14.52
2022-11-10T13:46:15.868Z,14.59
2022-11-10T13:49:30.074Z,14.75
2022-11-10T13:52:20.433Z,14.85
2022-11-10T13:55:35.971Z,14.65
2022-11-10T13:58:26.886Z,14.77
2022-11-10T14:01:30.524Z,14.97
2022-11-10T14:04:41.330Z,14.71
2022-11-10T14:07:36.229Z,14.93
2022-11-10T14:10:35.196Z,16.29
2022-11-10T14:13:27.367Z,15.18
2022-11-10T14:16:20.412Z,14.82
2022-11-10T14:19:21.057Z,14.59
2022-11-10T14:22:21.784Z,14.80
2022-11-10T14:25:20.354Z,14.70
2022-11-10T14:28:25.113Z,14.66
2022-11-10T14:31:20.394Z,15.06
2022-11-10T14:34:06.841Z,15.19
2022-11-10T14:36:55.500Z,15.19
2022-11-10T14:39:42.680Z,14.97
2022-11-10T14:42:32.383Z,15.00
2022-11-10T14:45:21.140Z,14.76
2022-11-10T14:48:18.507Z,14.51
2022-11-10T14:51:09.127Z,13.97
2022-11-10T14:53:57.431Z,13.79
2022-11-10T14:56:43.701Z,13.70
2022-11-10T14:59:31.802Z,13.47
2022-11-10T15:02:20.500Z,13.37
2022-11-10T15:05:07.518Z,13.26
2022-11-10T15:07:56.641Z,13.07
2022-11-10T15:10:46.901Z,12.84
2022-11-10T15:13:39.022Z,12.70
2022-11-10T15:16:28.443Z,12.52
2022-11-10T15:19:21.926Z,12.30
2022-11-10T15:22:18.480Z,12.11
2022-11-10T15:25:11.780Z,11.91
2022-11-10T15:28:01.682Z,11.71
2022-11-10T15:30:53.583Z,11.57
2022-11-10T15:33:48.171Z,11.48
2022-11-10T15:36:39.489Z,11.44
2022-11-10T15:39:27.200Z,11.33
2022-11-10T15:42:16.200Z,11.12
2022-11-10T15:45:02.535Z,10.95
2022-11-10T15:47:48.887Z,10.78
2022-11-10T15:50:37.077Z,10.50
2022-11-10T15:53:28.991Z,10.29
2022-11-10T15:56:17.135Z,12.28
2022-11-10T15:59:04.169Z,12.02
2022-11-10T16:01:52.101Z,11.20
2022-11-10T16:04:38.887Z,10.60
2022-11-10T16:07:26.727Z,10.25
2022-11-10T16:10:13.297Z,10.59
2022-11-10T16:13:02.395Z,10.22
2022-11-10T16:15:49.176Z,10.02
2022-11-10T16:18:38.864Z,9.82
2022-11-10T16:21:27.921Z,9.68
2022-11-10T16:24:15.480Z,9.49
2022-11-10T16:27:01.985Z,9.35
2022-11-10T16:29:48.414Z,9.21
2022-11-10T16:32:36.292Z,9.14
2022-11-10T16:35:22.996Z,9.07
2022-11-10T16:38:17.671Z,8.95
2022-11-10T16:41:05.601Z,8.84
2022-11-10T16:43:51.809Z,8.82
2022-11-10T16:46:40.093Z,8.81
2022-11-10T16:49:32.912Z,8.81
2022-11-10T16:52:21.274Z,8.84
2022-11-10T16:55:10.682Z,8.82
2022-11-10T16:57:58.493Z,8.84
2022-11-10T17:00:49.059Z,8.85
2022-11-10T17:03:38.147Z,8.84
2022-11-10T17:06:25.604Z,8.86
2022-11-10T17:09:18.232Z,8.82
2022-11-10T17:12:05.303Z,8.68
2022-11-10T17:14:53.096Z,8.63
2022-11-10T17:17:40.883Z,8.62
2022-11-10T17:20:33.495Z,8.49
2022-11-10T17:23:23.947Z,8.60
2022-11-10T17:26:13.267Z,8.60
2022-11-10T17:28:59.740Z,8.59
2022-11-10T17:31:47.891Z,8.50
2022-11-10T17:34:34.478Z,8.50
2022-11-10T17:37:21.209Z,8.34
2022-11-10T17:40:18.853Z,8.36
2022-11-10T17:43:15.144Z,8.30
2022-11-10T17:46:02.206Z,8.23
2022-11-10T17:48:50.176Z,8.15
2022-11-10T17:51:40.827Z,8.08
2022-11-10T17:54:29.848Z,7.96
2022-11-10T17:57:17.320Z,7.92
2022-11-10T18:00:29.951Z,7.79
2022-11-10T18:03:18.034Z,7.71
2022-11-10T18:06:08.360Z,7.73
2022-11-10T18:08:54.841Z,7.73
2022-11-10T18:11:41.356Z,7.67
2022-11-10T18:14:27.947Z,7.64
2022-11-10T18:17:14.348Z,7.61
2022-11-10T18:20:02.758Z,7.58
2022-11-10T18:22:50.653Z,7.57
2022-11-10T18:25:37.232Z,7.49
2022-11-10T18:28:24.076Z,7.43
2022-11-10T18:31:12.932Z,7.41
2022-11-10T18:33:59.531Z,7.45
2022-11-10T18:36:50.794Z,7.36
2022-11-10T18:39:38.716Z,7.19
2022-11-10T18:42:25.702Z,7.23
2022-11-10T18:45:13.065Z,7.11
2022-11-10T18:48:03.344Z,7.12
2022-11-10T18:50:52.349Z,7.03
2022-11-10T18:53:39.687Z,7.01
2022-11-10T18:56:27.834Z,6.97
2022-11-10T18:59:14.969Z,6.88
2022-11-10T19:02:02.778Z,6.88
2022-11-10T19:04:53.434Z,6.87
2022-11-10T19:07:40.144Z,6.85
2022-11-10T19:10:26.477Z,6.87
2022-11-10T19:13:15.314Z,6.88
2022-11-10T19:16:05.240Z,6.90
2022-11-10T19:18:51.986Z,6.88
2022-11-10T19:21:42.396Z,6.93
2022-11-10T19:24:32.210Z,6.96
2022-11-10T19:27:24.564Z,6.98
2022-11-10T19:30:13.975Z,6.89
2022-11-10T19:33:00.516Z,6.92
2022-11-10T19:35:47.217Z,6.94
2022-11-10T19:38:33.936Z,7.03
2022-11-10T19:41:22.551Z,7.03
2022-11-10T19:44:09.274Z,6.99
2022-11-10T19:46:57.413Z,6.94
2022-11-10T19:49:43.933Z,6.94
2022-11-10T19:52:30.980Z,6.89
2022-11-10T19:55:17.314Z,6.79
2022-11-10T19:58:03.969Z,6.75
2022-11-10T20:00:50.540Z,6.67
2022-11-10T20:03:39.276Z,6.57
2022-11-10T20:06:25.503Z,6.53
2022-11-10T20:09:12.150Z,6.47
2022-11-10T20:11:58.762Z,6.38
2022-11-10T20:14:45.164Z,6.46
2022-11-10T20:17:31.922Z,6.66
2022-11-10T20:20:19.671Z,6.64
2022-11-10T20:23:07.567Z,6.54
2022-11-10T20:26:03.057Z,6.44
2022-11-10T20:28:49.871Z,6.43
2022-11-10T20:31:38.490Z,6.48
2022-11-10T20:34:25.176Z,6.50
2022-11-10T20:37:12.795Z,6.43
2022-11-10T20:40:00.963Z,6.42
2022-11-10T20:42:47.726Z,6.31
2022-11-10T20:45:34.420Z,6.26
2022-11-10T20:48:21.082Z,6.13
2022-11-10T20:51:12.026Z,6.06
2022-11-10T20:54:02.602Z,6.01
2022-11-10T20:56:48.937Z,5.98
2022-11-10T20:59:35.289Z,5.95
2022-11-10T21:02:21.691Z,5.94
2022-11-10T21:05:09.142Z,5.89
2022-11-10T21:07:55.805Z,5.86
2022-11-10T21:10:52.490Z,5.76
2022-11-10T21:13:40.382Z,5.77
2022-11-10T21:16:27.328Z,5.76
2022-11-10T21:19:13.880Z,5.74
2022-11-10T21:22:00.222Z,5.85
2022-11-10T21:24:46.996Z,5.89
2022-11-10T21:27:34.775Z,5.69
2022-11-10T21:30:23.893Z,5.64
2022-11-10T21:33:10.673Z,5.60
2022-11-10T21:35:56.919Z,5.64
2022-11-10T21:38:46.742Z,5.60
2022-11-10T21:41:33.196Z,5.54
2022-11-10T21:44:21.093Z,5.53
2022-11-10T21:47:09.641Z,5.47
2022-11-10T21:49:56.178Z,5.38
2022-11-10T21:52:42.637Z,5.39
2022-11-10T21:55:28.909Z,5.45
2022-11-10T21:58:15.328Z,5.41
2022-11-10T22:01:04.291Z,5.41
2022-11-10T22:03:51.000Z,5.29
2022-11-10T22:06:55.044Z,5.24
2022-11-10T22:09:59.039Z,5.21
2022-11-10T22:13:02.848Z,5.33
2022-11-10T22:16:07.155Z,5.35
2022-11-10T22:18:54.992Z,5.28
2022-11-10T22:21:41.548Z,5.25
2022-11-10T22:24:28.442Z,5.23
2022-11-10T22:27:15.294Z,5.22
2022-11-10T22:30:01.931Z,5.20
2022-11-10T22:32:48.445Z,5.25
2022-11-10T22:35:45.201Z,5.23
2022-11-10T22:38:31.737Z,5.14
2022-11-10T22:41:36.426Z,5.05
2022-11-10T22:44:25.191Z,4.91
2022-11-10T22:47:11.685Z,4.93
2022-11-10T22:49:58.360Z,4.96
2022-11-10T22:52:46.404Z,4.83
2022-11-10T22:55:33.037Z,4.75
2022-11-10T22:58:19.450Z,4.71
2022-11-10T23:01:07.604Z,4.68
2022-11-10T23:03:54.611Z,4.59
2022-11-10T23:06:40.791Z,4.54
2022-11-10T23:09:28.479Z,4.56
2022-11-10T23:12:14.728Z,4.65
2022-11-10T23:15:04.092Z,4.91
2022-11-10T23:17:50.567Z,4.95
2022-11-10T23:20:37.497Z,4.99
2022-11-10T23:23:24.024Z,4.97
2022-11-10T23:26:15.802Z,4.93
2022-11-10T23:29:02.467Z,4.82
2022-11-10T23:31:49.123Z,4.73
2022-11-10T23:34:35.642Z,4.70
2022-11-10T23:37:22.036Z,4.70
2022-11-10T23:40:09.252Z,4.62
2022-11-10T23:42:56.802Z,4.51
2022-11-10T23:46:05.913Z,4.38
2022-11-10T23:48:51.708Z,4.42
2022-11-10T23:51:38.267Z,5.45
2022-11-10T23:54:24.825Z,7.85
2022-11-10T23:57:11.411Z,8.94
2022-11-10T23:59:59.382Z,9.23
